< < Back
Terminal Aerodrome Forecast


Current Version              Previous Versions:   1  2  3  4  5  6  7  8  9  

Terminal Aerodrome Forecast

180
FTUS42 KGSP 020500
TAFAVL
TAF
KAVL 020535Z 0206/0306 00000KT P6SM SCT250
     FM020700 00000KT 5SM BR FEW010 SCT250
     FM020900 00000KT 1SM BR OVC002
      TEMPO 0209/0213 1/4SM FG VV001
     FM021300 00000KT 4SM BR BKN015
     FM021400 35005KT P6SM FEW050 SCT250
     FM021800 32006KT P6SM BKN050 PROB30 0218/0224 4SM TSRA BKN040CB
     FM030000 33003KT P6SM BKN050 PROB30 0300/0306 4SM TSRA
      BKN040CB=

Latest METAR

258
SAUS70 KWBC 021700 RRJ
MTRAVL
METAR KAVL 021654Z 02007KT 330V040 10SM FEW100 FEW120 30/19 A3016 RMK
AO2 SLP181 T03000189


USA.gov is the U.S. government's official web portal to all federal, state and local government web resources and services.